Time;durP1;ratioP1;P1;durP2;ratioP2;P2;SDS_P1;SDS_P2;PMS_P1;PMS_P2;Temp;Humidity;BMP_temperature;BMP_pressure;BME280_temperature;BME280_humidity;BME280_pressure;Samples;Min_cycle;Max_cycle;Signal;HPM_P1;HPM_P2
2022/05/20 00:00:08;;;;;;;4.40;2.00;;;;;;;13.07;54.49;100758.34;4442238;32;33663;-58
2022/05/20 00:02:36;;;;;;;5.62;2.20;;;;;;;13.56;53.26;100766.00;4451583;32;34590;-58
2022/05/20 00:05:04;;;;;;;4.60;2.17;;;;;;;13.75;52.45;100756.44;4449852;32;34831;-58
2022/05/20 00:07:31;;;;;;;5.37;2.20;;;;;;;13.47;53.70;100764.66;4445381;32;33607;-58
2022/05/20 00:10:00;;;;;;;5.50;2.28;;;;;;;13.29;54.03;100762.00;4429288;32;33627;-57
2022/05/20 00:12:27;;;;;;;6.35;2.37;;;;;;;13.22;54.18;100767.75;4448808;32;34016;-59
2022/05/20 00:14:55;;;;;;;4.90;1.95;;;;;;;12.52;56.32;100750.34;4445569;32;34132;-58
2022/05/20 00:17:22;;;;;;;5.97;2.25;;;;;;;12.46;56.50;100755.19;4448605;32;34280;-58
2022/05/20 00:19:50;;;;;;;5.80;2.10;;;;;;;12.52;56.76;100747.75;4447958;32;34011;-58
2022/05/20 00:22:17;;;;;;;4.78;2.10;;;;;;;12.46;56.71;100760.41;4440475;32;33824;-58
2022/05/20 00:27:31;;;;;;;4.40;2.33;;;;;;;12.37;57.05;100753.91;4446773;32;34433;-59
2022/05/20 00:30:00;;;;;;;4.68;2.20;;;;;;;11.96;58.20;100757.78;4448243;32;34755;-57
2022/05/20 00:32:27;;;;;;;8.77;2.33;;;;;;;11.84;59.07;100757.09;4451853;32;33748;-58
2022/05/20 00:34:54;;;;;;;5.45;2.03;;;;;;;11.63;59.61;100748.09;4445434;32;33978;-59
2022/05/20 00:37:22;;;;;;;5.15;2.20;;;;;;;11.42;60.07;100748.72;4449396;32;34505;-58
2022/05/20 00:39:50;;;;;;;5.22;2.28;;;;;;;11.12;62.23;100751.31;4445029;32;34635;-58
2022/05/20 00:42:18;;;;;;;6.82;2.35;;;;;;;11.14;63.60;100749.72;4446325;32;33901;-59
2022/05/20 00:44:46;;;;;;;5.62;2.17;;;;;;;11.21;62.61;100759.63;4446842;32;33523;-59
2022/05/20 00:47:14;;;;;;;5.25;2.40;;;;;;;10.77;63.44;100757.94;4447856;32;33386;-58
2022/05/20 00:49:45;;;;;;;6.45;1.80;;;;;;;10.73;64.29;100761.16;4444301;32;34696;-59
2022/05/20 00:52:15;;;;;;;5.20;2.03;;;;;;;10.53;64.75;100772.03;4447382;32;34847;-58
2022/05/20 00:54:45;;;;;;;6.60;2.60;;;;;;;10.53;63.76;100764.25;4433234;32;34156;-58
2022/05/20 00:57:23;;;;;;;6.68;2.15;;;;;;;10.49;65.04;100765.78;4435008;32;32745;-58
2022/05/20 00:59:53;;;;;;;4.90;2.40;;;;;;;10.58;64.44;100770.59;4445220;32;33958;-59
2022/05/20 01:02:23;;;;;;;3.78;1.92;;;;;;;10.41;66.00;100774.75;4443093;32;33711;-57
2022/05/20 01:04:56;;;;;;;5.10;2.35;;;;;;;10.55;65.02;100765.25;4424801;32;34089;-59
2022/05/20 01:07:24;;;;;;;5.45;2.03;;;;;;;10.61;64.84;100765.63;4449243;32;33693;-57
2022/05/20 01:09:52;;;;;;;6.50;2.50;;;;;;;10.47;65.87;100757.03;4426238;32;32254;-58
2022/05/20 01:12:21;;;;;;;4.93;1.98;;;;;;;10.52;66.45;100767.66;4448817;32;32462;-58
2022/05/20 01:14:49;;;;;;;7.20;2.20;;;;;;;10.61;65.51;100757.84;4452694;32;34779;-58
2022/05/20 01:17:17;;;;;;;5.72;2.45;;;;;;;10.58;65.46;100760.22;4434698;32;33485;-58
2022/05/20 01:19:51;;;;;;;5.00;2.30;;;;;;;10.72;65.54;100763.66;4443953;32;34051;-58
2022/05/20 01:22:51;;;;;;;7.55;2.50;;;;;;;10.59;67.33;100767.22;4444629;32;33830;-58
2022/05/20 01:25:18;;;;;;;5.50;2.75;;;;;;;10.74;66.90;100757.78;4425835;32;34240;-58
2022/05/20 01:27:46;;;;;;;4.87;2.40;;;;;;;10.51;66.79;100759.00;4451315;32;34593;-59
2022/05/20 01:30:18;;;;;;;5.43;2.08;;;;;;;10.45;66.92;100757.69;4443050;32;33634;-58
2022/05/20 01:32:45;;;;;;;5.10;2.15;;;;;;;10.39;66.83;100758.22;4436921;32;33985;-58
2022/05/20 01:35:26;;;;;;;5.03;2.20;;;;;;;10.79;65.21;100761.50;4447610;32;34306;-58
2022/05/20 01:37:54;;;;;;;4.60;2.08;;;;;;;11.28;61.81;100762.56;4451708;32;33801;-57
2022/05/20 01:40:22;;;;;;;4.22;1.80;;;;;;;11.25;61.30;100752.03;4442793;32;34456;-58
2022/05/20 01:42:58;;;;;;;4.60;2.00;;;;;;;11.14;61.97;100762.69;4448963;32;33864;-58
2022/05/20 01:45:33;;;;;;;4.65;2.30;;;;;;;10.66;62.58;100759.00;4433959;32;34628;-58
2022/05/20 01:48:16;;;;;;;7.68;2.20;;;;;;;10.89;61.41;100756.88;4437307;32;33561;-58
2022/05/20 01:50:52;;;;;;;7.60;1.87;;;;;;;11.57;59.68;100739.19;4431611;32;34032;-58
2022/05/20 01:53:28;;;;;;;4.72;1.50;;;;;;;10.33;63.44;100743.22;4445462;32;34814;-58
2022/05/20 01:56:07;;;;;;;7.93;2.30;;;;;;;9.95;63.85;100739.13;4427396;32;34733;-59
2022/05/20 01:58:39;;;;;;;4.65;2.20;;;;;;;9.88;65.40;100736.06;4447011;32;34582;-57
2022/05/20 02:01:11;;;;;;;4.80;2.25;;;;;;;9.58;67.68;100738.50;4446047;32;33572;-58
2022/05/20 02:03:44;;;;;;;4.87;2.25;;;;;;;9.65;68.15;100739.00;4433377;32;34370;-58
2022/05/20 02:06:35;;;;;;;4.95;2.15;;;;;;;10.07;64.86;100732.94;4432566;32;34235;-59
2022/05/20 02:09:07;;;;;;;4.37;1.92;;;;;;;10.62;61.41;100734.63;4445097;32;33659;-58
2022/05/20 02:11:39;;;;;;;3.90;1.60;;;;;;;11.39;59.20;100738.16;4432349;32;34574;-58
2022/05/20 02:14:16;;;;;;;6.07;2.12;;;;;;;11.10;59.90;100737.38;4451420;32;33917;-58
2022/05/20 02:16:52;;;;;;;4.53;2.15;;;;;;;11.48;59.67;100735.19;4450627;32;34033;-57
2022/05/20 02:19:31;;;;;;;3.75;1.90;;;;;;;10.93;61.23;100732.91;4432872;32;33547;-58
2022/05/20 02:22:00;;;;;;;5.05;1.60;;;;;;;10.38;63.06;100736.62;4430692;32;33903;-59
2022/05/20 02:24:31;;;;;;;4.85;1.73;;;;;;;11.02;60.39;100738.63;4443002;32;34013;-58
2022/05/20 02:27:02;;;;;;;5.93;2.03;;;;;;;10.63;61.48;100732.91;4417553;32;33817;-59
2022/05/20 02:29:39;;;;;;;6.75;1.70;;;;;;;11.11;60.02;100731.41;4434608;32;33631;-58
2022/05/20 02:32:37;;;;;;;12.45;2.28;;;;;;;10.38;61.72;100735.72;4447934;32;34031;-58
2022/05/20 02:35:06;;;;;;;4.75;2.10;;;;;;;10.23;62.23;100740.84;4418059;32;33982;-59
2022/05/20 02:37:36;;;;;;;4.18;1.70;;;;;;;10.08;63.29;100735.59;4450636;32;34722;-58
2022/05/20 02:40:06;;;;;;;5.68;2.12;;;;;;;9.63;65.00;100737.12;4430389;32;31814;-58
2022/05/20 02:42:33;;;;;;;4.10;2.17;;;;;;;9.63;66.77;100725.06;4449631;32;33644;-58
2022/05/20 02:45:01;;;;;;;5.30;2.20;;;;;;;9.50;68.15;100727.66;4446830;32;34431;-58
2022/05/20 02:47:31;;;;;;;4.75;2.20;;;;;;;9.12;69.12;100730.41;4445939;32;34757;-58
2022/05/20 02:50:01;;;;;;;4.47;2.10;;;;;;;9.99;66.09;100720.41;4451283;32;33511;-58
2022/05/20 02:52:29;;;;;;;4.80;2.25;;;;;;;9.82;66.30;100715.88;4450290;32;33912;-58
2022/05/20 02:54:56;;;;;;;3.92;1.92;;;;;;;10.09;65.72;100713.22;4431810;32;34024;-59
2022/05/20 02:57:25;;;;;;;6.68;2.45;;;;;;;10.02;64.94;100710.25;4443671;32;34143;-59
2022/05/20 03:05:25;;;;;;;6.75;2.22;;;;;;;10.51;63.37;100711.47;4446104;32;33964;-58
2022/05/20 03:07:59;;;;;;;6.80;2.25;;;;;;;10.88;61.50;100703.25;4441085;32;34964;-59
2022/05/20 03:10:27;;;;;;;6.12;2.20;;;;;;;10.62;62.19;100700.03;4439589;32;32986;-58
2022/05/20 03:13:03;;;;;;;5.12;2.10;;;;;;;10.59;62.75;100699.84;4445866;32;34714;-57
2022/05/20 03:15:31;;;;;;;4.87;1.83;;;;;;;10.20;64.01;100709.59;4447834;32;34023;-59
2022/05/20 03:17:59;;;;;;;5.47;2.30;;;;;;;10.69;62.43;100702.19;4442050;32;33968;-57
2022/05/20 03:20:26;;;;;;;6.97;2.58;;;;;;;10.72;62.46;100712.72;4442434;32;32981;-58
2022/05/20 03:22:54;;;;;;;7.90;2.72;;;;;;;10.67;63.09;100703.78;4443183;32;33976;-58
2022/05/20 03:25:22;;;;;;;5.97;2.03;;;;;;;10.45;63.86;100705.91;4434278;32;34701;-58
2022/05/20 03:27:50;;;;;;;5.40;2.15;;;;;;;10.58;62.00;100711.00;4445161;32;34116;-58
2022/05/20 03:30:18;;;;;;;6.18;2.20;;;;;;;10.26;63.48;100711.63;4445427;32;33819;-58
2022/05/20 03:32:45;;;;;;;5.78;2.00;;;;;;;10.28;63.37;100712.66;4443265;32;33939;-58
2022/05/20 03:35:13;;;;;;;4.78;2.00;;;;;;;10.26;63.89;100715.13;4446718;32;33862;-58
2022/05/20 03:37:41;;;;;;;4.97;2.17;;;;;;;11.04;61.50;100695.53;4448181;32;34805;-58
2022/05/20 03:40:10;;;;;;;7.40;2.45;;;;;;;11.05;60.64;100696.44;4444926;32;33451;-57
2022/05/20 03:42:37;;;;;;;4.15;2.10;;;;;;;10.70;61.59;100703.97;4432473;32;33840;-57
2022/05/20 03:45:06;;;;;;;9.07;2.08;;;;;;;11.05;61.24;100702.53;4444623;32;33887;-58
2022/05/20 03:47:34;;;;;;;5.20;2.08;;;;;;;10.84;61.23;100702.19;4446821;32;33052;-58
2022/05/20 03:50:03;;;;;;;6.28;2.37;;;;;;;10.45;63.29;100700.72;4444072;32;33442;-58
2022/05/20 03:52:31;;;;;;;4.62;2.25;;;;;;;10.09;65.15;100714.09;4444780;32;34092;-58
2022/05/20 03:54:58;;;;;;;6.47;2.55;;;;;;;10.25;64.39;100713.34;4443770;32;33597;-59
2022/05/20 03:57:26;;;;;;;5.78;2.00;;;;;;;10.08;65.42;100714.00;4434284;32;34119;-57
2022/05/20 03:59:54;;;;;;;4.68;2.20;;;;;;;10.00;65.93;100703.19;4443224;32;34439;-58
2022/05/20 04:02:22;;;;;;;5.60;2.33;;;;;;;9.98;66.20;100705.66;4445047;32;33810;-57
2022/05/20 04:04:52;;;;;;;6.68;2.40;;;;;;;10.23;65.98;100714.94;4445907;32;34030;-58
2022/05/20 04:07:24;;;;;;;7.03;2.28;;;;;;;10.45;65.40;100711.09;4432166;32;34765;-58
2022/05/20 04:09:53;;;;;;;8.02;2.55;;;;;;;11.01;63.38;100705.75;4448197;32;33604;-58
2022/05/20 04:12:41;;;;;;;4.82;2.12;;;;;;;11.05;63.20;100707.72;4435977;32;34000;-58
2022/05/20 04:15:11;;;;;;;7.10;2.87;;;;;;;11.61;61.38;100706.53;4440806;32;33654;-58
2022/05/20 04:17:39;;;;;;;6.90;2.50;;;;;;;12.02;60.21;100699.22;4446722;32;34908;-58
2022/05/20 04:20:08;;;;;;;9.13;2.78;;;;;;;12.07;59.86;100697.75;4442359;32;33470;-58
2022/05/20 04:22:38;;;;;;;5.68;2.30;;;;;;;11.68;60.91;100707.75;4447142;32;33837;-58
2022/05/20 04:25:06;;;;;;;7.18;2.60;;;;;;;11.41;61.88;100708.00;4443244;32;34648;-58
2022/05/20 04:27:33;;;;;;;9.05;2.83;;;;;;;11.40;62.63;100706.22;4444179;32;34371;-58
2022/05/20 04:30:03;;;;;;;5.80;2.35;;;;;;;11.37;61.83;100700.84;4445315;32;34321;-58
2022/05/20 04:32:30;;;;;;;6.43;2.30;;;;;;;11.38;62.02;100693.16;4441462;32;33258;-58
2022/05/20 04:34:58;;;;;;;10.00;2.55;;;;;;;11.60;61.94;100700.41;4445897;32;33819;-58
2022/05/20 04:37:27;;;;;;;4.25;2.12;;;;;;;11.99;60.69;100700.84;4441561;32;33997;-58
2022/05/20 04:39:55;;;;;;;8.60;2.42;;;;;;;12.27;59.30;100717.00;4441269;32;33632;-59
2022/05/20 04:47:56;;;;;;;4.65;2.40;;;;;;;13.42;56.44;100701.97;4450770;32;34725;-58
2022/05/20 04:50:24;;;;;;;6.28;2.42;;;;;;;13.94;55.02;100685.28;4441316;32;33545;-58
2022/05/20 04:52:51;;;;;;;5.68;2.65;;;;;;;13.48;56.38;100694.47;4448008;32;34024;-59
2022/05/20 04:55:19;;;;;;;6.07;2.30;;;;;;;13.98;54.60;100688.91;4444069;32;33845;-58
2022/05/20 04:57:51;;;;;;;6.22;2.40;;;;;;;14.09;54.51;100690.28;4428577;32;32696;-58
2022/05/20 05:00:23;;;;;;;5.32;2.62;;;;;;;14.57;54.40;100695.91;4446000;32;32713;-58
2022/05/20 05:02:52;;;;;;;9.02;2.80;;;;;;;14.07;54.74;100697.16;4427536;32;34024;-58
2022/05/20 05:05:22;;;;;;;7.57;2.80;;;;;;;14.36;53.84;100701.03;4434897;32;33885;-58
2022/05/20 05:07:52;;;;;;;7.57;2.70;;;;;;;14.95;52.51;100701.84;4438698;32;33386;-59
2022/05/20 05:10:25;;;;;;;7.15;2.65;;;;;;;15.67;51.78;100698.63;4445739;32;33112;-58
2022/05/20 05:12:53;;;;;;;10.32;3.33;;;;;;;15.78;51.55;100713.03;4450916;32;33579;-58
2022/05/20 05:15:20;;;;;;;6.35;2.90;;;;;;;16.06;50.94;100711.44;4442990;32;33970;-59
2022/05/20 05:20:34;;;;;;;5.32;2.33;;;;;;;15.23;52.91;100716.03;4439171;32;34435;-58
2022/05/20 05:23:02;;;;;;;5.18;2.83;;;;;;;15.08;52.39;100711.94;4447485;32;34038;-58
2022/05/20 05:25:32;;;;;;;9.25;2.90;;;;;;;15.37;51.79;100703.53;4452684;32;33914;-59
2022/05/20 05:28:00;;;;;;;5.05;2.35;;;;;;;16.04;50.65;100690.47;4447925;32;34701;-58
2022/05/20 05:30:29;;;;;;;4.53;2.65;;;;;;;16.48;50.13;100703.38;4441211;32;33661;-58
2022/05/20 05:32:57;;;;;;;10.15;2.75;;;;;;;16.63;50.68;100692.53;4445921;32;34694;-59
2022/05/20 05:35:27;;;;;;;5.12;2.42;;;;;;;16.56;50.97;100696.69;4447617;32;33854;-59
2022/05/20 05:37:55;;;;;;;5.03;2.65;;;;;;;16.96;50.35;100679.75;4440670;32;33512;-58
2022/05/20 05:40:28;;;;;;;9.07;2.65;;;;;;;17.40;49.27;100684.63;4443227;32;34033;-59
2022/05/20 05:42:56;;;;;;;11.38;2.78;;;;;;;17.41;49.06;100686.41;4447412;32;34479;-58
2022/05/20 05:45:25;;;;;;;7.28;2.55;;;;;;;17.28;48.84;100691.25;4446807;32;33867;-59
2022/05/20 05:47:56;;;;;;;9.70;2.80;;;;;;;17.61;47.77;100685.28;4443907;32;34160;-59
2022/05/20 05:50:24;;;;;;;7.22;2.90;;;;;;;18.03;45.85;100678.69;4430111;32;33631;-59
2022/05/20 05:53:10;;;;;;;9.52;3.35;;;;;;;17.85;46.87;100685.16;4434269;32;34104;-58
2022/05/20 05:55:40;;;;;;;8.63;2.65;;;;;;;18.06;47.11;100684.03;4446840;32;34864;-58
2022/05/20 05:58:08;;;;;;;5.68;2.67;;;;;;;18.57;46.86;100680.16;4447992;32;34227;-58
2022/05/20 06:00:35;;;;;;;6.37;2.95;;;;;;;18.40;47.50;100684.94;4443286;32;32169;-59
2022/05/20 06:03:04;;;;;;;5.50;2.50;;;;;;;18.69;48.31;100676.97;4451503;32;34768;-58
2022/05/20 06:05:32;;;;;;;5.72;2.62;;;;;;;19.16;47.70;100669.38;4446838;32;33682;-59
2022/05/20 06:08:01;;;;;;;6.97;2.90;;;;;;;18.94;48.15;100674.13;4444668;32;33805;-58
2022/05/20 06:10:29;;;;;;;6.47;3.42;;;;;;;18.95;46.87;100681.16;4444364;32;34468;-58
2022/05/20 06:12:56;;;;;;;10.77;3.35;;;;;;;19.19;46.17;100670.34;4434022;32;34643;-59
2022/05/20 06:15:24;;;;;;;7.90;3.08;;;;;;;19.57;44.65;100672.97;4443444;32;34046;-58
2022/05/20 06:17:56;;;;;;;9.23;3.35;;;;;;;19.78;43.90;100669.97;4452836;32;34377;-58
2022/05/20 06:20:25;;;;;;;6.70;2.87;;;;;;;19.56;43.48;100662.44;4445599;32;33681;-58
2022/05/20 06:22:53;;;;;;;7.32;2.67;;;;;;;20.00;42.15;100662.50;4450137;32;33929;-58
2022/05/20 06:25:20;;;;;;;4.78;2.60;;;;;;;20.29;40.48;100670.97;4442656;32;33995;-59
2022/05/20 06:27:48;;;;;;;8.63;2.50;;;;;;;20.78;39.31;100665.72;4435627;32;34259;-58
2022/05/20 06:30:19;;;;;;;7.40;2.55;;;;;;;20.86;38.27;100660.59;4442609;32;33546;-58
2022/05/20 06:32:47;;;;;;;8.63;2.22;;;;;;;19.72;39.24;100672.47;4449665;32;32918;-59
2022/05/20 06:40:48;;;;;;;7.05;2.45;;;;;;;20.34;36.30;100673.69;4446242;32;33395;-58
2022/05/20 06:43:19;;;;;;;7.93;2.40;;;;;;;20.46;34.74;100668.66;4445462;32;33947;-59
2022/05/20 06:45:49;;;;;;;5.82;2.30;;;;;;;19.86;35.61;100671.84;4437615;32;32283;-59
2022/05/20 06:48:49;;;;;;;7.90;2.58;;;;;;;19.36;37.60;100672.50;4444054;32;34815;-59
2022/05/20 06:51:19;;;;;;;7.62;2.33;;;;;;;19.54;35.87;100677.28;4445789;32;34362;-59
2022/05/20 06:53:47;;;;;;;4.10;1.90;;;;;;;19.36;37.93;100664.63;4445848;32;34778;-59
2022/05/20 06:56:15;;;;;;;6.97;2.12;;;;;;;19.73;35.30;100674.22;4448293;32;33804;-58
2022/05/20 06:58:43;;;;;;;5.40;2.58;;;;;;;19.56;36.71;100678.19;4443027;32;34114;-59
2022/05/20 07:01:12;;;;;;;6.30;2.47;;;;;;;19.51;35.23;100675.47;4446569;32;34205;-58
2022/05/20 07:03:41;;;;;;;9.60;2.72;;;;;;;20.06;35.35;100681.03;4449293;32;33960;-59
2022/05/20 07:06:09;;;;;;;7.72;2.45;;;;;;;19.68;36.09;100675.81;4450795;32;33924;-59
2022/05/20 07:08:37;;;;;;;6.12;2.37;;;;;;;19.76;36.81;100678.66;4440617;32;34181;-59
2022/05/20 07:11:06;;;;;;;5.78;2.47;;;;;;;19.82;36.22;100679.69;4453369;32;33621;-58
2022/05/20 07:13:39;;;;;;;6.15;2.42;;;;;;;19.96;38.05;100682.59;4444590;32;33554;-58
2022/05/20 07:16:07;;;;;;;6.93;2.70;;;;;;;19.93;36.51;100686.91;4447921;32;33820;-59
2022/05/20 07:18:35;;;;;;;5.50;2.25;;;;;;;20.18;37.16;100683.91;4443445;32;33960;-58
2022/05/20 07:21:04;;;;;;;7.93;1.90;;;;;;;20.40;35.78;100679.97;4443837;32;33701;-59
2022/05/20 07:23:32;;;;;;;4.18;2.10;;;;;;;20.40;34.93;100686.97;4442001;32;34043;-59
2022/05/20 07:26:01;;;;;;;5.50;2.20;;;;;;;20.28;34.19;100684.09;4445946;32;34757;-58
2022/05/20 07:28:30;;;;;;;7.28;2.25;;;;;;;20.89;35.63;100679.09;4442350;32;34161;-59
2022/05/20 07:30:58;;;;;;;7.05;2.17;;;;;;;20.80;33.77;100679.81;4442731;32;33746;-58
2022/05/20 07:33:26;;;;;;;5.68;2.20;;;;;;;21.17;34.31;100675.13;4429071;32;33853;-59
2022/05/20 07:35:55;;;;;;;5.95;2.30;;;;;;;20.91;34.18;100678.25;4442632;32;34758;-59
2022/05/20 07:38:23;;;;;;;8.32;2.70;;;;;;;20.99;35.43;100676.63;4448628;32;34218;-59
2022/05/20 07:40:51;;;;;;;4.87;2.08;;;;;;;21.01;33.64;100674.91;4442108;32;33636;-59
2022/05/20 07:43:22;;;;;;;5.87;2.17;;;;;;;21.25;33.65;100677.87;4428749;32;34137;-59
2022/05/20 07:45:51;;;;;;;5.20;1.73;;;;;;;21.28;33.30;100678.81;4452954;32;34536;-59
2022/05/20 07:48:19;;;;;;;6.85;2.33;;;;;;;21.43;34.26;100679.94;4439890;32;34813;-58
2022/05/20 07:50:54;;;;;;;5.90;2.17;;;;;;;21.78;34.00;100677.81;4454635;32;34273;-59
2022/05/20 07:53:33;;;;;;;7.15;2.40;;;;;;;21.70;33.80;100679.47;4450804;32;33974;-59
2022/05/20 07:56:10;;;;;;;5.20;2.20;;;;;;;21.52;33.57;100677.47;4439674;32;33689;-58
2022/05/20 07:58:42;;;;;;;6.75;2.30;;;;;;;21.88;35.50;100676.16;4437817;32;34564;-58
2022/05/20 08:01:24;;;;;;;4.93;2.10;;;;;;;21.83;34.75;100667.31;4448283;32;34315;-58
2022/05/20 08:06:42;;;;;;;4.97;1.80;;;;;;;22.29;34.72;100662.59;4433946;32;33919;-58
2022/05/20 08:09:10;;;;;;;3.78;2.15;;;;;;;22.55;33.46;100661.13;4448547;32;34138;-59
2022/05/20 08:11:37;;;;;;;10.18;2.12;;;;;;;22.39;33.70;100664.50;4452440;32;33443;-59
2022/05/20 08:14:05;;;;;;;4.30;2.12;;;;;;;22.58;34.56;100658.50;4440653;32;33923;-59
2022/05/20 08:16:32;;;;;;;5.05;2.50;;;;;;;22.71;32.69;100650.69;4441790;32;33673;-58
2022/05/20 08:19:00;;;;;;;5.80;2.10;;;;;;;23.34;33.05;100649.44;4443848;32;34909;-59
2022/05/20 08:21:28;;;;;;;5.12;2.00;;;;;;;23.59;32.73;100652.22;4423312;32;34292;-59
2022/05/20 08:23:55;;;;;;;4.00;2.00;;;;;;;23.95;32.06;100653.28;4446804;32;34785;-59
2022/05/20 08:26:23;;;;;;;6.35;2.10;;;;;;;24.13;31.91;100652.47;4448566;32;33705;-59
2022/05/20 08:28:50;;;;;;;3.80;1.80;;;;;;;23.99;31.83;100643.59;4444935;32;32419;-58
2022/05/20 08:31:18;;;;;;;7.43;2.10;;;;;;;23.56;31.14;100644.25;4447350;32;33702;-58
2022/05/20 08:33:46;;;;;;;8.80;2.20;;;;;;;24.42;30.07;100643.72;4432635;32;34689;-59
2022/05/20 08:36:13;;;;;;;7.32;2.10;;;;;;;24.22;30.68;100641.00;4450063;32;34784;-59
2022/05/20 08:38:41;;;;;;;4.45;1.90;;;;;;;24.44;30.16;100640.16;4451723;32;34960;-59
2022/05/20 08:41:34;;;;;;;7.28;2.20;;;;;;;24.11;30.35;100638.34;4436467;32;33048;-59
2022/05/20 08:44:03;;;;;;;5.25;1.87;;;;;;;25.22;29.42;100628.72;4448695;32;33460;-58
2022/05/20 08:46:31;;;;;;;6.35;2.10;;;;;;;24.99;29.65;100612.81;4434875;32;33658;-59
2022/05/20 08:48:58;;;;;;;4.10;2.10;;;;;;;25.16;28.75;100611.91;4447443;32;33995;-59
2022/05/20 08:51:32;;;;;;;5.82;2.08;;;;;;;24.91;29.35;100610.16;4444370;32;33645;-59
2022/05/20 08:54:01;;;;;;;3.90;1.90;;;;;;;24.87;29.52;100611.06;4434670;32;34630;-59
2022/05/20 08:56:29;;;;;;;5.25;1.87;;;;;;;25.00;30.48;100609.28;4449815;32;33971;-59
2022/05/20 08:59:02;;;;;;;5.70;1.85;;;;;;;25.03;29.20;100608.38;4444704;32;34171;-59
2022/05/20 09:01:33;;;;;;;4.82;1.90;;;;;;;26.12;28.65;100602.72;4437041;32;33027;-59
2022/05/20 09:04:01;;;;;;;5.43;2.00;;;;;;;26.30;27.95;100596.41;4450195;32;33040;-58
2022/05/20 09:06:29;;;;;;;6.70;2.03;;;;;;;25.59;28.28;100588.81;4428979;32;34774;-59
2022/05/20 09:09:03;;;;;;;7.07;1.80;;;;;;;26.24;28.71;100585.84;4451258;32;34805;-58
2022/05/20 09:11:30;;;;;;;4.87;1.58;;;;;;;26.25;27.77;100582.28;4441118;32;33772;-58
2022/05/20 09:17:18;;;;;;;4.30;1.70;;;;;;;26.03;28.56;100576.25;4439626;32;33697;-58
2022/05/20 09:19:57;;;;;;;7.90;2.00;;;;;;;26.24;27.25;100576.09;4439044;32;34340;-59
2022/05/20 09:22:37;;;;;;;8.20;2.40;;;;;;;25.84;28.44;100578.06;4442947;32;33438;-58
2022/05/20 09:25:11;;;;;;;3.97;1.75;;;;;;;25.74;28.02;100576.37;4448951;32;33931;-59
2022/05/20 09:27:39;;;;;;;5.65;2.00;;;;;;;25.70;28.63;100571.06;4440645;32;33912;-60
2022/05/20 09:30:15;;;;;;;7.97;1.98;;;;;;;25.98;29.06;100570.97;4448442;32;34915;-59
2022/05/20 09:32:44;;;;;;;8.88;3.33;;;;;;;26.91;28.08;100562.25;4446942;32;33425;-59
2022/05/20 09:35:18;;;;;;;4.97;1.80;;;;;;;26.83;28.12;100560.56;4448084;32;34099;-58
2022/05/20 09:37:48;;;;;;;4.80;2.33;;;;;;;26.77;27.71;100565.97;4446407;32;33653;-60
2022/05/20 09:40:34;;;;;;;5.30;2.58;;;;;;;26.98;27.64;100555.97;4450144;32;35940;-59
2022/05/20 09:43:28;;;;;;;6.85;1.95;;;;;;;25.93;27.77;100548.87;4438264;32;34350;-59
2022/05/20 09:45:59;;;;;;;4.62;2.10;;;;;;;26.73;27.82;100552.69;4442941;32;34752;-60
2022/05/20 09:48:47;;;;;;;4.35;2.10;;;;;;;26.77;28.18;100555.31;4442969;32;33636;-59
2022/05/20 09:51:21;;;;;;;7.60;2.25;;;;;;;26.87;28.73;100551.66;4449035;32;34132;-59
2022/05/20 09:54:13;;;;;;;6.07;2.47;;;;;;;26.86;28.57;100565.84;4463012;32;34609;-59
2022/05/20 09:56:45;;;;;;;4.22;2.03;;;;;;;26.83;28.27;100560.56;4448812;32;32429;-60
2022/05/20 09:59:30;;;;;;;5.00;2.17;;;;;;;26.58;27.83;100561.63;4439509;32;34584;-61
2022/05/20 10:02:04;;;;;;;4.62;2.33;;;;;;;26.65;29.08;100563.38;4449792;32;34906;-59
2022/05/20 10:04:39;;;;;;;5.18;2.12;;;;;;;26.48;29.33;100559.09;4445843;32;33698;-59
2022/05/20 10:07:10;;;;;;;5.00;2.05;;;;;;;26.36;29.06;100559.16;4446650;32;33838;-59
2022/05/20 10:09:59;;;;;;;8.48;2.60;;;;;;;26.98;28.47;100559.50;4447076;32;33798;-59
2022/05/20 10:12:32;;;;;;;6.72;2.40;;;;;;;27.22;28.62;100547.75;4448218;32;33726;-59
2022/05/20 10:15:13;;;;;;;11.30;2.78;;;;;;;26.91;28.87;100540.97;4443074;32;32593;-59
2022/05/20 10:17:49;;;;;;;6.00;2.35;;;;;;;27.03;29.96;100541.75;4443019;32;33992;-59
2022/05/20 10:20:31;;;;;;;5.68;2.28;;;;;;;27.56;28.75;100552.66;4448378;32;35068;-59
2022/05/20 10:23:08;;;;;;;4.68;2.03;;;;;;;28.25;27.81;100537.50;4448586;32;34120;-59
2022/05/20 10:25:49;;;;;;;5.05;2.05;;;;;;;27.75;28.42;100525.78;4444283;32;34385;-59
2022/05/20 10:34:38;;;;;;;7.45;2.50;;;;;;;27.46;28.34;100529.72;4444394;32;34852;-60
2022/05/20 10:37:16;;;;;;;5.60;2.05;;;;;;;27.80;28.01;100534.59;4445931;32;33674;-60
2022/05/20 10:40:33;;;;;;;5.68;2.53;;;;;;;27.75;28.36;100536.44;4447194;32;32168;-60
2022/05/20 10:43:20;;;;;;;8.52;2.62;;;;;;;28.22;27.91;100534.84;4433167;32;34847;-60
2022/05/20 10:49:06;;;;;;;7.65;2.65;;;;;;;28.01;29.09;100517.47;4446306;32;32345;-58
2022/05/20 10:51:49;;;;;;;6.53;3.08;;;;;;;27.34;29.04;100513.94;4447226;32;34661;-58
2022/05/20 10:54:22;;;;;;;6.00;2.58;;;;;;;29.06;27.16;100515.63;4442139;32;33865;-60
2022/05/20 10:57:00;;;;;;;7.50;2.70;;;;;;;29.91;25.92;100507.59;4440863;32;33856;-60
2022/05/20 10:59:42;;;;;;;7.12;2.50;;;;;;;29.90;25.45;100500.50;4443728;32;34506;-60
2022/05/20 11:02:13;;;;;;;5.10;2.20;;;;;;;29.36;27.02;100512.38;4449087;32;33833;-60
2022/05/20 11:05:02;;;;;;;5.30;2.33;;;;;;;28.28;27.87;100493.91;4446798;32;33649;-60
2022/05/20 11:07:36;;;;;;;5.47;2.58;;;;;;;28.75;27.37;100506.44;4443698;32;34201;-59
2022/05/20 11:10:18;;;;;;;7.37;2.30;;;;;;;29.74;25.82;100496.44;4448954;32;33730;-60
2022/05/20 11:13:10;;;;;;;6.82;2.37;;;;;;;29.53;26.56;100498.63;4447667;32;34072;-59
2022/05/20 11:16:05;;;;;;;4.35;2.30;;;;;;;29.97;26.30;100491.41;4435774;32;34693;-60
2022/05/20 11:18:51;;;;;;;6.57;2.35;;;;;;;28.83;27.25;100483.16;4446404;32;34172;-59
2022/05/20 11:21:22;;;;;;;4.28;2.40;;;;;;;30.34;25.48;100479.81;4444044;32;33706;-59
2022/05/20 11:24:15;;;;;;;5.12;2.45;;;;;;;30.69;25.41;100469.97;4446779;32;33141;-60
2022/05/20 11:27:02;;;;;;;5.47;2.20;;;;;;;31.29;25.52;100472.75;4413106;32;34851;-60
2022/05/20 11:29:29;;;;;;;6.45;2.65;;;;;;;30.74;25.15;100472.53;4446388;32;34864;-60
2022/05/20 11:32:01;;;;;;;6.72;2.40;;;;;;;29.27;26.79;100471.66;4446561;32;34249;-60
2022/05/20 11:34:47;;;;;;;8.18;2.45;;;;;;;30.47;26.14;100477.72;4435794;32;34042;-58
2022/05/20 11:37:33;;;;;;;4.78;2.37;;;;;;;30.92;25.30;100472.03;4449296;32;33399;-60
2022/05/20 11:40:42;;;;;;;9.15;2.45;;;;;;;30.23;26.04;100463.19;4448096;32;34299;-60
2022/05/20 11:43:30;;;;;;;4.12;2.10;;;;;;;29.77;26.85;100458.97;4444212;32;33561;-58
2022/05/20 11:46:03;;;;;;;4.62;2.28;;;;;;;29.22;26.70;100453.06;4452255;32;34026;-59
2022/05/20 11:49:09;;;;;;;10.52;2.72;;;;;;;29.67;27.42;100454.72;4451949;32;34813;-59
2022/05/20 11:51:42;;;;;;;5.55;2.55;;;;;;;30.03;26.12;100446.78;4444475;32;34907;-60
2022/05/20 11:54:28;;;;;;;14.07;3.15;;;;;;;29.41;27.57;100450.87;4447561;32;33293;-60
2022/05/20 11:57:27;;;;;;;5.12;2.60;;;;;;;29.69;26.92;100447.56;4441395;32;33361;-60
2022/05/20 12:00:03;;;;;;;6.78;2.70;;;;;;;30.33;25.88;100443.34;4433244;32;33967;-60
2022/05/20 12:02:37;;;;;;;7.85;2.35;;;;;;;31.33;25.78;100440.50;4448720;32;35715;-59
2022/05/20 12:05:06;;;;;;;7.95;2.65;;;;;;;31.91;24.62;100428.84;4430924;32;34146;-61
2022/05/20 12:07:37;;;;;;;4.80;2.55;;;;;;;30.83;26.40;100433.94;4443469;32;34668;-59
2022/05/20 12:10:30;;;;;;;16.20;3.47;;;;;;;30.28;26.17;100431.84;4445196;32;33848;-60
2022/05/20 12:13:06;;;;;;;9.43;2.47;;;;;;;31.58;24.71;100417.47;4446617;32;34165;-59
2022/05/20 12:16:12;;;;;;;14.15;3.35;;;;;;;31.85;24.61;100411.22;4446896;32;32430;-60
2022/05/20 12:24:41;;;;;;;7.65;2.55;;;;;;;30.99;25.88;100408.53;4443540;32;33599;-60
2022/05/20 12:27:36;;;;;;;4.87;2.20;;;;;;;31.71;25.48;100403.59;4452315;32;33543;-59
2022/05/20 12:30:05;;;;;;;4.00;2.00;;;;;;;31.78;25.13;100403.44;4443027;32;33530;-60
2022/05/20 12:32:36;;;;;;;4.70;2.33;;;;;;;31.67;25.08;100403.78;4431313;32;33843;-59